createdAt,value
2023-05-25T00:00:28.569Z,0.00
2023-05-25T00:01:28.545Z,0.00
2023-05-25T00:02:27.605Z,0.00
2023-05-25T00:03:27.548Z,0.00
2023-05-25T00:04:27.671Z,0.00
2023-05-25T00:05:28.521Z,0.00
2023-05-25T00:06:28.549Z,0.00
2023-05-25T00:07:27.500Z,0.00
2023-05-25T00:08:27.525Z,0.00
2023-05-25T00:09:27.500Z,0.00
2023-05-25T00:10:28.529Z,0.00
2023-05-25T00:11:28.495Z,0.00
2023-05-25T00:12:27.500Z,0.00
2023-05-25T00:13:27.562Z,0.00
2023-05-25T00:14:27.486Z,0.00
2023-05-25T00:15:28.491Z,0.00
2023-05-25T00:16:28.533Z,0.00
2023-05-25T00:17:27.485Z,0.00
2023-05-25T00:18:27.476Z,0.00
2023-05-25T00:19:27.451Z,0.00
2023-05-25T00:20:28.508Z,0.00
2023-05-25T00:21:28.472Z,0.00
2023-05-25T00:22:27.459Z,0.00
2023-05-25T00:23:27.491Z,0.00
2023-05-25T00:24:27.472Z,0.00
2023-05-25T00:25:28.434Z,0.00
2023-05-25T00:26:28.487Z,0.00
2023-05-25T00:27:27.408Z,0.00
2023-05-25T00:28:27.512Z,0.00
2023-05-25T00:29:27.410Z,0.00
2023-05-25T00:30:28.472Z,0.00
2023-05-25T00:31:28.608Z,0.00
2023-05-25T00:32:27.502Z,0.00
2023-05-25T00:33:27.400Z,0.00
2023-05-25T00:34:27.412Z,0.00
2023-05-25T00:35:28.530Z,0.00
2023-05-25T00:36:28.491Z,0.00
2023-05-25T00:37:27.438Z,0.00
2023-05-25T00:38:27.443Z,0.00
2023-05-25T00:39:27.426Z,0.00
2023-05-25T00:40:28.573Z,0.00
2023-05-25T00:41:28.548Z,0.00
2023-05-25T00:42:27.381Z,0.00
2023-05-25T00:43:27.459Z,0.00
2023-05-25T00:44:27.392Z,0.00
2023-05-25T00:45:28.375Z,0.00
2023-05-25T00:46:28.422Z,0.00
2023-05-25T00:47:27.381Z,0.00
2023-05-25T00:48:27.376Z,0.00
2023-05-25T00:49:27.362Z,0.00
2023-05-25T00:50:28.459Z,0.00
2023-05-25T00:51:28.437Z,0.00
2023-05-25T00:52:27.412Z,0.00
2023-05-25T00:53:27.402Z,0.00
2023-05-25T00:54:27.406Z,0.00
2023-05-25T00:55:28.384Z,0.00
2023-05-25T00:56:28.352Z,0.00
2023-05-25T00:57:27.318Z,0.00
2023-05-25T00:58:27.371Z,0.00
2023-05-25T00:59:27.305Z,0.00
2023-05-25T01:00:28.382Z,0.00
2023-05-25T01:01:28.362Z,0.00
2023-05-25T01:02:27.338Z,0.00
2023-05-25T01:03:27.518Z,0.00
2023-05-25T01:04:27.326Z,0.00
2023-05-25T01:05:28.405Z,0.00
2023-05-25T01:06:28.417Z,0.00
2023-05-25T01:07:28.124Z,0.00
2023-05-25T01:08:27.380Z,0.00
2023-05-25T01:09:27.332Z,0.00
2023-05-25T01:10:28.357Z,0.00
2023-05-25T01:11:28.349Z,0.00
2023-05-25T01:12:27.329Z,0.00
2023-05-25T01:13:27.329Z,0.00
2023-05-25T01:14:27.270Z,0.00
2023-05-25T01:15:28.333Z,0.00
2023-05-25T01:16:28.388Z,0.00
2023-05-25T01:17:27.253Z,0.00
2023-05-25T01:18:27.246Z,0.00
2023-05-25T01:19:27.302Z,0.00
2023-05-25T01:20:28.334Z,0.00
2023-05-25T01:21:28.335Z,0.00
2023-05-25T01:22:27.321Z,0.00
2023-05-25T01:23:27.276Z,0.00
2023-05-25T01:24:27.331Z,0.00
2023-05-25T01:25:28.285Z,0.00
2023-05-25T01:26:28.299Z,0.00
2023-05-25T01:27:27.196Z,0.00
2023-05-25T01:28:27.293Z,0.00
2023-05-25T01:29:27.263Z,0.00
2023-05-25T01:30:28.259Z,0.00
2023-05-25T01:31:28.352Z,0.00
2023-05-25T01:32:27.277Z,0.00
2023-05-25T01:33:27.240Z,0.00
2023-05-25T01:34:27.219Z,0.00
2023-05-25T01:35:28.236Z,0.00
2023-05-25T01:36:28.186Z,0.00
2023-05-25T01:37:27.164Z,0.00
2023-05-25T01:38:27.230Z,0.00
2023-05-25T01:39:27.234Z,0.00
2023-05-25T01:40:28.218Z,0.00
2023-05-25T01:41:28.213Z,0.00
2023-05-25T01:42:27.219Z,0.00
2023-05-25T01:43:27.251Z,0.00
2023-05-25T01:44:27.219Z,0.00
2023-05-25T01:45:28.246Z,0.00
2023-05-25T01:46:28.308Z,0.00
2023-05-25T01:47:27.282Z,0.00
2023-05-25T01:48:27.219Z,0.00
2023-05-25T01:49:27.131Z,0.00
2023-05-25T01:50:28.214Z,0.00
2023-05-25T01:51:28.200Z,0.00
2023-05-25T01:52:27.209Z,0.00
2023-05-25T01:53:27.139Z,0.00
2023-05-25T01:54:27.169Z,0.00
2023-05-25T01:55:28.215Z,0.00
2023-05-25T01:56:28.192Z,0.00
2023-05-25T01:57:27.156Z,0.00
2023-05-25T01:58:27.155Z,0.00
2023-05-25T01:59:27.167Z,0.00
2023-05-25T02:00:28.179Z,0.00
2023-05-25T02:01:28.401Z,0.00
2023-05-25T02:02:27.269Z,0.00
2023-05-25T02:03:27.127Z,0.00
2023-05-25T02:04:27.152Z,0.00
2023-05-25T02:05:28.116Z,0.00
2023-05-25T02:06:28.131Z,0.00
2023-05-25T02:07:27.100Z,0.00
2023-05-25T02:08:27.059Z,0.00
2023-05-25T02:09:27.095Z,0.00
2023-05-25T02:10:28.162Z,0.00
2023-05-25T02:11:28.096Z,0.00
2023-05-25T02:12:27.113Z,0.00
2023-05-25T02:13:27.048Z,0.00
2023-05-25T02:14:27.142Z,0.00
2023-05-25T02:15:28.017Z,0.00
2023-05-25T02:16:28.131Z,0.00
2023-05-25T02:17:27.028Z,0.00
2023-05-25T02:18:27.017Z,0.00
2023-05-25T02:19:27.021Z,0.00
2023-05-25T02:20:28.076Z,0.00
2023-05-25T02:21:28.053Z,0.00
2023-05-25T02:22:27.030Z,0.00
2023-05-25T02:23:27.293Z,0.00
2023-05-25T02:24:27.091Z,0.00
2023-05-25T02:25:28.053Z,0.00
2023-05-25T02:26:28.041Z,0.00
2023-05-25T02:27:27.026Z,0.00
2023-05-25T02:28:27.049Z,0.00
2023-05-25T02:29:27.044Z,0.00
2023-05-25T02:30:28.005Z,0.00
2023-05-25T02:31:28.020Z,0.00
2023-05-25T02:32:27.011Z,0.00
2023-05-25T02:33:26.970Z,0.00
2023-05-25T02:34:26.973Z,0.00
2023-05-25T02:35:27.950Z,0.00
2023-05-25T02:36:27.993Z,0.00
2023-05-25T02:37:26.955Z,0.00
2023-05-25T02:38:26.938Z,0.00
2023-05-25T02:39:26.935Z,0.00
2023-05-25T02:40:27.951Z,0.00
2023-05-25T02:41:27.929Z,0.00
2023-05-25T02:42:26.943Z,0.00
2023-05-25T02:43:26.913Z,0.00
2023-05-25T02:44:26.976Z,0.00
2023-05-25T02:45:27.929Z,0.00
2023-05-25T02:46:28.001Z,0.00
2023-05-25T02:47:27.058Z,0.00
2023-05-25T02:48:26.955Z,0.00
2023-05-25T02:49:26.967Z,0.00
2023-05-25T02:50:27.963Z,0.00
2023-05-25T02:51:27.945Z,0.00
2023-05-25T02:52:26.927Z,0.00
2023-05-25T02:53:26.937Z,0.00
2023-05-25T02:54:26.919Z,0.00
2023-05-25T02:55:27.944Z,0.00
2023-05-25T02:56:27.924Z,0.00
2023-05-25T02:57:26.927Z,0.00
2023-05-25T02:58:26.950Z,0.00
2023-05-25T02:59:26.875Z,0.00
2023-05-25T03:00:27.937Z,0.00
2023-05-25T03:01:28.010Z,0.00
2023-05-25T03:02:26.883Z,0.00
2023-05-25T03:03:26.824Z,0.00
2023-05-25T03:04:26.845Z,0.00
2023-05-25T03:05:27.829Z,5.63
2023-05-25T03:06:27.888Z,5.63
2023-05-25T03:07:26.848Z,5.63
2023-05-25T03:08:26.818Z,5.63
2023-05-25T03:09:26.823Z,5.63
2023-05-25T03:10:27.830Z,5.63
2023-05-25T03:11:27.795Z,5.63
2023-05-25T03:12:26.812Z,5.63
2023-05-25T03:13:26.820Z,5.63
2023-05-25T03:14:26.791Z,5.63
2023-05-25T03:15:27.807Z,5.63
2023-05-25T03:16:27.843Z,5.63
2023-05-25T03:17:26.804Z,11.25
2023-05-25T03:18:26.786Z,11.25
2023-05-25T03:19:26.769Z,11.25
2023-05-25T03:20:27.797Z,11.25
2023-05-25T03:21:27.819Z,11.25
2023-05-25T03:22:26.786Z,11.25
2023-05-25T03:23:26.791Z,11.25
2023-05-25T03:24:26.760Z,11.25
2023-05-25T03:25:27.800Z,11.25
2023-05-25T03:26:27.773Z,11.25
2023-05-25T03:27:26.765Z,11.25
2023-05-25T03:28:26.730Z,16.88
2023-05-25T03:29:26.737Z,16.88
2023-05-25T03:30:27.816Z,16.88
2023-05-25T03:31:27.813Z,16.88
2023-05-25T03:32:26.849Z,16.88
2023-05-25T03:33:26.779Z,16.88
2023-05-25T03:34:26.792Z,16.88
2023-05-25T03:35:27.783Z,16.88
2023-05-25T03:36:27.765Z,22.50
2023-05-25T03:37:26.741Z,22.50
2023-05-25T03:38:26.732Z,22.50
2023-05-25T03:39:26.784Z,22.50
2023-05-25T03:40:27.763Z,22.50
2023-05-25T03:41:27.756Z,22.50
2023-05-25T03:42:26.730Z,22.50
2023-05-25T03:43:26.736Z,22.50
2023-05-25T03:44:26.733Z,22.50
2023-05-25T03:45:27.721Z,28.13
2023-05-25T03:46:27.756Z,28.13
2023-05-25T03:47:26.792Z,28.13
2023-05-25T03:48:26.704Z,28.13
2023-05-25T03:49:26.715Z,28.13
2023-05-25T03:50:27.681Z,28.13
2023-05-25T03:51:27.717Z,28.13
2023-05-25T03:52:26.708Z,33.75
2023-05-25T03:53:26.727Z,33.75
2023-05-25T03:54:26.689Z,33.75
2023-05-25T03:55:27.701Z,33.75
2023-05-25T03:56:27.667Z,33.75
2023-05-25T03:57:26.668Z,33.75
2023-05-25T03:58:26.681Z,33.75
2023-05-25T03:59:26.673Z,39.38
2023-05-25T04:00:34.833Z,39.38
2023-05-25T04:02:30.557Z,39.38
2023-05-25T04:03:30.684Z,39.38
2023-05-25T04:05:34.504Z,39.38
2023-05-25T04:06:34.490Z,45.00
2023-05-25T04:08:38.493Z,45.00
2023-05-25T04:09:38.474Z,45.00
2023-05-25T04:11:31.911Z,50.63
2023-05-25T04:12:31.907Z,50.63
2023-05-25T04:13:31.946Z,50.63
2023-05-25T04:14:31.900Z,50.63
2023-05-25T04:15:31.880Z,50.63
2023-05-25T04:16:31.915Z,56.25
2023-05-25T04:17:31.884Z,56.25
2023-05-25T04:18:31.856Z,56.25
2023-05-25T04:19:31.851Z,56.25
2023-05-25T04:20:31.883Z,61.88
2023-05-25T04:21:31.838Z,61.88
2023-05-25T04:22:31.836Z,61.88
2023-05-25T04:23:31.835Z,61.88
2023-05-25T04:24:31.822Z,61.88
2023-05-25T04:25:31.825Z,67.50
2023-05-25T04:26:31.820Z,67.50
2023-05-25T04:27:31.809Z,73.13
2023-05-25T04:28:31.822Z,73.13
2023-05-25T04:29:31.803Z,73.13
2023-05-25T04:30:31.817Z,78.75
2023-05-25T04:31:31.815Z,78.75
2023-05-25T04:32:31.819Z,73.13
2023-05-25T04:33:31.783Z,73.13
2023-05-25T04:34:31.782Z,73.13
2023-05-25T04:35:31.852Z,73.13
2023-05-25T04:36:31.777Z,67.50
2023-05-25T04:37:31.773Z,73.13
2023-05-25T04:38:31.763Z,73.13
2023-05-25T04:39:31.755Z,78.75
2023-05-25T04:40:31.752Z,78.75
2023-05-25T04:41:31.754Z,78.75
2023-05-25T04:42:31.748Z,78.75
2023-05-25T04:43:31.744Z,78.75
2023-05-25T04:44:31.733Z,84.38
2023-05-25T04:45:31.807Z,84.38
2023-05-25T04:46:31.850Z,84.38
2023-05-25T04:47:31.798Z,84.38
2023-05-25T04:48:31.722Z,84.38
2023-05-25T04:49:31.741Z,90.00
2023-05-25T04:50:31.731Z,90.00
2023-05-25T04:51:31.748Z,90.00
2023-05-25T04:52:31.712Z,90.00
2023-05-25T04:53:31.722Z,95.63
2023-05-25T04:54:31.702Z,95.63
2023-05-25T04:55:31.718Z,95.63
2023-05-25T04:56:31.711Z,95.63
2023-05-25T04:57:31.710Z,101.25
2023-05-25T04:58:31.688Z,101.25
2023-05-25T04:59:31.699Z,101.25
2023-05-25T05:00:31.690Z,101.25
2023-05-25T05:01:31.780Z,101.25
2023-05-25T05:02:31.761Z,101.25
2023-05-25T05:03:31.694Z,101.25
2023-05-25T05:04:31.668Z,101.25
2023-05-25T05:05:31.716Z,106.88
2023-05-25T05:06:31.668Z,106.88
2023-05-25T05:07:31.668Z,106.88
2023-05-25T05:08:31.662Z,112.50
2023-05-25T05:09:31.657Z,112.50
2023-05-25T05:10:31.675Z,112.50
2023-05-25T05:11:31.656Z,112.50
2023-05-25T05:12:31.647Z,112.50
2023-05-25T05:13:31.654Z,118.13
2023-05-25T05:14:31.650Z,118.13
2023-05-25T05:15:31.643Z,118.13
2023-05-25T05:16:31.709Z,123.75
2023-05-25T05:17:31.689Z,123.75
2023-05-25T05:18:31.630Z,123.75
2023-05-25T05:19:31.671Z,129.38
2023-05-25T05:20:31.711Z,129.38
2023-05-25T05:21:31.622Z,135.00
2023-05-25T05:22:31.629Z,140.63
2023-05-25T05:23:31.620Z,140.63
2023-05-25T05:24:31.634Z,146.25
2023-05-25T05:25:31.634Z,151.88
2023-05-25T05:26:41.247Z,208.13
2023-05-25T05:27:31.632Z,753.75
2023-05-25T05:28:31.606Z,1226.25
2023-05-25T05:29:31.645Z,1248.75
2023-05-25T05:30:31.638Z,1243.13
2023-05-25T05:31:31.668Z,1344.38
2023-05-25T05:32:31.643Z,1428.75
2023-05-25T05:33:31.765Z,1372.50
2023-05-25T05:34:31.589Z,1361.25
2023-05-25T05:35:31.597Z,1361.25
2023-05-25T05:36:34.596Z,1400.63
2023-05-25T05:37:31.627Z,1406.25
2023-05-25T05:38:31.619Z,1479.38
2023-05-25T05:39:31.605Z,1530.00
2023-05-25T05:40:31.636Z,1530.00
2023-05-25T05:41:31.616Z,1586.25
2023-05-25T05:42:31.618Z,1591.88
2023-05-25T05:43:31.617Z,1546.88
2023-05-25T05:44:31.660Z,1597.50
2023-05-25T05:45:31.641Z,1625.63
2023-05-25T05:46:31.660Z,1535.63
2023-05-25T05:47:31.643Z,1541.25
2023-05-25T05:48:31.632Z,1620.00
2023-05-25T05:49:31.695Z,1468.13
2023-05-25T05:50:31.644Z,1293.75
2023-05-25T05:51:31.667Z,1417.50
2023-05-25T05:52:31.664Z,1524.38
2023-05-25T05:53:31.666Z,1524.38
2023-05-25T05:54:31.687Z,1535.63
2023-05-25T05:55:31.705Z,1434.38
2023-05-25T05:56:31.712Z,1473.75
2023-05-25T05:57:31.707Z,1530.00
2023-05-25T05:58:31.734Z,1603.13
2023-05-25T05:59:31.735Z,1569.38
2023-05-25T06:00:31.740Z,1541.25
2023-05-25T06:01:31.764Z,1603.13
2023-05-25T06:02:31.850Z,1710.00
2023-05-25T06:03:31.810Z,1749.38
2023-05-25T06:04:31.801Z,1760.63
2023-05-25T06:05:31.829Z,1743.75
2023-05-25T06:06:31.799Z,1794.38
2023-05-25T06:07:31.796Z,1850.63
2023-05-25T06:08:31.810Z,1816.88
2023-05-25T06:09:31.822Z,1760.63
2023-05-25T06:10:31.833Z,1783.13
2023-05-25T06:11:31.866Z,1766.25
2023-05-25T06:12:31.885Z,1743.75
2023-05-25T06:13:31.873Z,1822.50
2023-05-25T06:14:31.864Z,1822.50
2023-05-25T06:15:31.904Z,1721.25
2023-05-25T06:16:31.953Z,1710.00
2023-05-25T06:17:31.932Z,1766.25
2023-05-25T06:18:31.921Z,1749.38
2023-05-25T06:19:31.934Z,1726.88
2023-05-25T06:20:31.992Z,1783.13
2023-05-25T06:21:31.957Z,1845.00
2023-05-25T06:22:31.992Z,1867.50
2023-05-25T06:23:31.967Z,1788.75
2023-05-25T06:24:32.019Z,1800.00
2023-05-25T06:25:32.020Z,1800.00
2023-05-25T06:26:32.058Z,1833.75
2023-05-25T06:27:32.009Z,1839.38
2023-05-25T06:28:32.040Z,1816.88
2023-05-25T06:29:32.072Z,1732.50
2023-05-25T06:30:32.124Z,1749.38
2023-05-25T06:31:32.132Z,1805.63
2023-05-25T06:32:32.131Z,1878.75
2023-05-25T06:33:32.090Z,1884.38
2023-05-25T06:34:32.111Z,1822.50
2023-05-25T06:35:32.148Z,1968.75
2023-05-25T06:36:32.382Z,1890.00
2023-05-25T06:37:32.178Z,1906.88
2023-05-25T06:38:32.156Z,1906.88
2023-05-25T06:39:32.189Z,1800.00
2023-05-25T06:40:32.220Z,1822.50
2023-05-25T06:41:32.203Z,1850.63
2023-05-25T06:42:32.263Z,1923.75
2023-05-25T06:43:32.282Z,1918.13
2023-05-25T06:44:32.237Z,1794.38
2023-05-25T06:45:32.256Z,1766.25
2023-05-25T06:46:32.313Z,1811.25
2023-05-25T06:47:32.286Z,1822.50
2023-05-25T06:48:32.307Z,1895.63
2023-05-25T06:49:32.301Z,1800.00
2023-05-25T06:50:32.345Z,1856.25
2023-05-25T06:51:32.313Z,1845.00
2023-05-25T06:52:32.342Z,1918.13
2023-05-25T06:53:32.360Z,1968.75
2023-05-25T06:54:32.358Z,2041.88
2023-05-25T06:55:32.404Z,1935.00
2023-05-25T06:56:32.405Z,1878.75
2023-05-25T06:57:32.419Z,1811.25
2023-05-25T06:58:32.423Z,1771.88
2023-05-25T06:59:32.418Z,1726.88
2023-05-25T07:00:32.434Z,1743.75
2023-05-25T07:01:32.477Z,1906.88
2023-05-25T07:02:32.482Z,1940.63
2023-05-25T07:03:32.466Z,1878.75
2023-05-25T07:04:32.522Z,1828.13
2023-05-25T07:05:32.495Z,1940.63
2023-05-25T07:06:32.510Z,1901.25
2023-05-25T07:07:32.559Z,1693.13
2023-05-25T07:08:32.537Z,1766.25
2023-05-25T07:09:32.543Z,1771.88
2023-05-25T07:10:32.569Z,1603.13
2023-05-25T07:11:32.583Z,1445.63
2023-05-25T07:12:32.588Z,1350.00
2023-05-25T07:13:32.640Z,1243.13
2023-05-25T07:14:32.636Z,1158.75
2023-05-25T07:15:32.677Z,1063.13
2023-05-25T07:16:32.681Z,967.50
2023-05-25T07:17:32.677Z,916.88
2023-05-25T07:18:32.675Z,877.50
2023-05-25T07:19:32.714Z,843.75
2023-05-25T07:20:32.772Z,804.38
2023-05-25T07:21:32.720Z,798.75
2023-05-25T07:22:32.737Z,787.50
2023-05-25T07:23:32.766Z,793.13
2023-05-25T07:24:32.764Z,765.00
2023-05-25T07:25:32.775Z,765.00
2023-05-25T07:26:32.793Z,753.75
2023-05-25T07:27:32.799Z,748.13
2023-05-25T07:28:32.836Z,731.25
2023-05-25T07:29:32.827Z,725.63
2023-05-25T07:30:32.887Z,725.63
2023-05-25T07:31:32.897Z,720.00
2023-05-25T07:32:32.927Z,720.00
2023-05-25T07:33:32.892Z,720.00
2023-05-25T07:34:32.919Z,714.38
2023-05-25T07:35:32.930Z,703.13
2023-05-25T07:36:32.955Z,703.13
2023-05-25T07:37:32.973Z,697.50
2023-05-25T07:38:32.971Z,680.63
2023-05-25T07:39:32.992Z,675.00
2023-05-25T07:40:33.028Z,686.25
2023-05-25T07:41:33.008Z,680.63
2023-05-25T07:42:33.023Z,680.63
2023-05-25T07:43:33.034Z,669.38
2023-05-25T07:44:33.052Z,663.75
2023-05-25T07:45:33.070Z,663.75
2023-05-25T07:46:33.119Z,658.13
2023-05-25T07:47:33.155Z,652.50
2023-05-25T07:48:33.124Z,652.50
2023-05-25T07:49:33.124Z,663.75
2023-05-25T07:50:33.137Z,663.75
2023-05-25T07:51:33.180Z,658.13
2023-05-25T07:52:33.184Z,641.25
2023-05-25T07:53:33.186Z,236.25
2023-05-25T07:54:33.232Z,219.38
2023-05-25T07:55:33.215Z,219.38
2023-05-25T07:56:33.255Z,225.00
2023-05-25T07:57:33.266Z,399.38
2023-05-25T07:58:33.266Z,450.00
2023-05-25T07:59:33.267Z,444.38
2023-05-25T08:00:33.293Z,416.25
2023-05-25T08:01:33.327Z,410.63
2023-05-25T08:02:33.403Z,405.00
2023-05-25T08:03:47.988Z,388.13
2023-05-25T08:04:33.432Z,371.25
2023-05-25T08:05:33.368Z,241.88
2023-05-25T08:06:33.359Z,196.88
2023-05-25T08:07:33.379Z,208.13
2023-05-25T08:08:33.427Z,219.38
2023-05-25T08:09:33.387Z,303.75
2023-05-25T08:10:33.403Z,399.38
2023-05-25T08:11:33.428Z,399.38
2023-05-25T08:12:47.080Z,393.75
2023-05-25T08:13:33.433Z,388.13
2023-05-25T08:14:33.483Z,382.50
2023-05-25T08:15:33.442Z,382.50
2023-05-25T08:16:33.496Z,337.50
2023-05-25T08:17:33.497Z,371.25
2023-05-25T08:18:33.519Z,354.38
2023-05-25T08:19:33.489Z,360.00
2023-05-25T08:20:33.566Z,360.00
2023-05-25T08:21:34.768Z,360.00
2023-05-25T08:22:33.513Z,360.00
2023-05-25T08:23:33.520Z,354.38
2023-05-25T08:24:33.528Z,348.75
2023-05-25T08:25:33.533Z,337.50
2023-05-25T08:26:45.370Z,337.50
2023-05-25T08:27:35.402Z,337.50
2023-05-25T08:28:33.560Z,326.25
2023-05-25T08:29:33.563Z,303.75
2023-05-25T08:30:33.583Z,292.50
2023-05-25T08:31:33.691Z,270.00
2023-05-25T08:32:33.688Z,286.88
2023-05-25T08:33:33.601Z,180.00
2023-05-25T08:34:33.662Z,157.50
2023-05-25T08:35:33.606Z,157.50
2023-05-25T08:36:33.616Z,146.25
2023-05-25T08:37:33.627Z,146.25
2023-05-25T08:38:33.632Z,191.25
2023-05-25T08:39:35.015Z,123.75
2023-05-25T08:40:33.640Z,112.50
2023-05-25T08:41:33.657Z,112.50
2023-05-25T08:42:34.483Z,112.50
2023-05-25T08:43:33.661Z,112.50
2023-05-25T08:44:33.665Z,129.38
2023-05-25T08:45:47.136Z,146.25
2023-05-25T08:46:33.684Z,140.63
2023-05-25T08:47:33.734Z,146.25
2023-05-25T08:48:40.893Z,146.25
2023-05-25T08:49:33.706Z,140.63
2023-05-25T08:50:33.699Z,135.00
2023-05-25T08:51:33.694Z,168.75
2023-05-25T08:52:33.706Z,208.13
2023-05-25T08:53:33.716Z,157.50
2023-05-25T08:54:33.725Z,219.38
2023-05-25T08:55:33.740Z,219.38
2023-05-25T08:56:34.666Z,219.38
2023-05-25T08:57:33.722Z,219.38
2023-05-25T08:58:33.723Z,213.75
2023-05-25T08:59:33.729Z,213.75
2023-05-25T09:00:33.742Z,157.50
2023-05-25T09:01:33.799Z,151.88
2023-05-25T09:02:33.771Z,146.25
2023-05-25T09:03:33.819Z,135.00
2023-05-25T09:04:33.758Z,129.38
2023-05-25T09:05:35.375Z,123.75
2023-05-25T09:06:33.771Z,118.13
2023-05-25T09:07:33.761Z,112.50
2023-05-25T09:08:33.772Z,112.50
2023-05-25T09:09:33.795Z,106.88
2023-05-25T09:10:33.762Z,112.50
2023-05-25T09:11:39.658Z,112.50
2023-05-25T09:12:33.780Z,112.50
2023-05-25T09:13:33.778Z,140.63
2023-05-25T09:14:33.791Z,151.88
2023-05-25T09:15:33.776Z,151.88
2023-05-25T09:16:33.831Z,151.88
2023-05-25T09:17:35.297Z,157.50
2023-05-25T09:18:34.497Z,202.50
2023-05-25T09:19:33.786Z,208.13
2023-05-25T09:20:33.847Z,213.75
2023-05-25T09:21:33.799Z,202.50
2023-05-25T09:22:33.823Z,196.88
2023-05-25T09:23:33.816Z,185.63
2023-05-25T09:24:33.832Z,180.00
2023-05-25T09:25:33.837Z,180.00
2023-05-25T09:26:33.839Z,163.13
2023-05-25T09:27:33.825Z,168.75
2023-05-25T09:28:33.831Z,168.75
2023-05-25T09:29:33.834Z,163.13
2023-05-25T09:30:33.839Z,163.13
2023-05-25T09:31:33.865Z,163.13
2023-05-25T09:32:33.886Z,163.13
2023-05-25T09:33:35.562Z,168.75
2023-05-25T09:34:33.890Z,174.38
2023-05-25T09:35:33.849Z,174.38
2023-05-25T09:36:33.927Z,140.63
2023-05-25T09:37:34.189Z,151.88
2023-05-25T09:38:34.033Z,185.63
2023-05-25T09:39:33.923Z,151.88
2023-05-25T09:40:33.882Z,180.00
2023-05-25T09:41:33.873Z,168.75
2023-05-25T09:42:33.878Z,191.25
2023-05-25T09:43:43.222Z,196.88
2023-05-25T09:44:33.892Z,202.50
2023-05-25T09:45:35.513Z,208.13
2023-05-25T09:46:34.009Z,213.75
2023-05-25T09:47:33.924Z,180.00
2023-05-25T09:48:33.892Z,174.38
2023-05-25T09:49:33.965Z,163.13
2023-05-25T09:50:33.899Z,157.50
2023-05-25T09:51:33.905Z,163.13
2023-05-25T09:52:33.911Z,163.13
2023-05-25T09:53:33.934Z,168.75
2023-05-25T09:54:33.931Z,191.25
2023-05-25T09:55:44.351Z,168.75
2023-05-25T09:56:33.929Z,163.13
2023-05-25T09:57:33.917Z,174.38
2023-05-25T09:58:33.947Z,174.38
2023-05-25T09:59:33.920Z,168.75
2023-05-25T10:00:33.931Z,157.50
2023-05-25T10:01:33.991Z,185.63
2023-05-25T10:02:42.176Z,185.63
2023-05-25T10:04:37.989Z,180.00
2023-05-25T10:05:37.917Z,180.00
2023-05-25T10:06:37.922Z,163.13
2023-05-25T10:07:37.923Z,151.88
2023-05-25T10:08:37.953Z,146.25
2023-05-25T10:09:37.934Z,146.25
2023-05-25T10:10:37.938Z,146.25
2023-05-25T10:11:37.931Z,140.63
2023-05-25T10:12:37.936Z,135.00
2023-05-25T10:13:37.940Z,135.00
2023-05-25T10:14:37.957Z,151.88
2023-05-25T10:15:37.975Z,135.00
2023-05-25T10:16:38.057Z,135.00
2023-05-25T10:17:37.978Z,129.38
2023-05-25T10:18:37.952Z,123.75
2023-05-25T10:19:37.954Z,135.00
2023-05-25T10:20:37.993Z,129.38
2023-05-25T10:21:37.964Z,157.50
2023-05-25T10:22:37.964Z,163.13
2023-05-25T10:23:37.972Z,129.38
2023-05-25T10:24:37.975Z,129.38
2023-05-25T10:25:37.967Z,140.63
2023-05-25T10:26:37.967Z,135.00
2023-05-25T10:27:37.963Z,146.25
2023-05-25T10:28:37.993Z,151.88
2023-05-25T10:29:37.980Z,146.25
2023-05-25T10:30:37.987Z,146.25
2023-05-25T10:31:38.032Z,146.25
2023-05-25T10:32:38.028Z,146.25
2023-05-25T10:33:37.980Z,146.25
2023-05-25T10:34:37.979Z,146.25
2023-05-25T10:35:46.986Z,151.88
2023-05-25T10:36:37.991Z,151.88
2023-05-25T10:37:38.003Z,151.88
2023-05-25T10:38:37.990Z,151.88
2023-05-25T10:39:37.986Z,157.50
2023-05-25T10:40:38.021Z,157.50
2023-05-25T10:41:38.027Z,168.75
2023-05-25T10:42:38.026Z,157.50
2023-05-25T10:43:37.998Z,151.88
2023-05-25T10:44:38.021Z,140.63
2023-05-25T10:45:38.012Z,123.75
2023-05-25T10:46:38.061Z,135.00
2023-05-25T10:47:38.066Z,146.25
2023-05-25T10:48:38.009Z,151.88
2023-05-25T10:49:38.016Z,151.88
2023-05-25T10:50:38.027Z,151.88
2023-05-25T10:51:38.025Z,151.88
2023-05-25T10:52:38.050Z,151.88
2023-05-25T10:53:38.061Z,151.88
2023-05-25T10:54:38.033Z,151.88
2023-05-25T10:55:38.028Z,146.25
2023-05-25T10:56:38.050Z,146.25
2023-05-25T10:57:38.025Z,146.25
2023-05-25T10:58:38.063Z,146.25
2023-05-25T10:59:38.030Z,118.13
2023-05-25T11:00:38.138Z,118.13
2023-05-25T11:01:38.128Z,106.88
2023-05-25T11:02:38.097Z,101.25
2023-05-25T11:03:38.046Z,101.25
2023-05-25T11:04:38.115Z,101.25
2023-05-25T11:05:38.095Z,135.00
2023-05-25T11:06:38.056Z,140.63
2023-05-25T11:07:38.065Z,140.63
2023-05-25T11:08:38.054Z,140.63
2023-05-25T11:09:38.052Z,135.00
2023-05-25T11:10:38.082Z,140.63
2023-05-25T11:11:38.065Z,146.25
2023-05-25T11:12:38.083Z,146.25
2023-05-25T11:13:40.661Z,151.88
2023-05-25T11:14:38.074Z,157.50
2023-05-25T11:15:38.073Z,157.50
2023-05-25T11:16:38.139Z,157.50
2023-05-25T11:17:38.073Z,151.88
2023-05-25T11:18:38.111Z,151.88
2023-05-25T11:19:38.073Z,135.00
2023-05-25T11:20:38.184Z,118.13
2023-05-25T11:21:38.122Z,118.13
2023-05-25T11:22:38.095Z,106.88
2023-05-25T11:23:38.092Z,106.88
2023-05-25T11:24:38.093Z,129.38
2023-05-25T11:25:38.104Z,135.00
2023-05-25T11:26:38.124Z,135.00
2023-05-25T11:27:38.098Z,135.00
2023-05-25T11:28:38.095Z,140.63
2023-05-25T11:29:38.123Z,140.63
2023-05-25T11:30:38.130Z,135.00
2023-05-25T11:31:41.513Z,146.25
2023-05-25T11:32:38.128Z,140.63
2023-05-25T11:33:38.145Z,140.63
2023-05-25T11:34:38.118Z,135.00
2023-05-25T11:35:38.130Z,106.88
2023-05-25T11:36:38.170Z,101.25
2023-05-25T11:37:38.125Z,101.25
2023-05-25T11:38:38.123Z,101.25
2023-05-25T11:39:38.133Z,135.00
2023-05-25T11:40:40.459Z,135.00
2023-05-25T11:41:38.116Z,135.00
2023-05-25T11:42:38.135Z,135.00
2023-05-25T11:43:38.129Z,140.63
2023-05-25T11:44:38.184Z,140.63
2023-05-25T11:45:38.170Z,146.25
2023-05-25T11:46:38.138Z,151.88
2023-05-25T11:47:38.399Z,157.50
2023-05-25T11:48:38.134Z,151.88
2023-05-25T11:49:38.165Z,157.50
2023-05-25T11:50:38.138Z,157.50
2023-05-25T11:51:38.142Z,157.50
2023-05-25T11:52:38.155Z,129.38
2023-05-25T11:53:38.143Z,123.75
2023-05-25T11:54:38.140Z,151.88
2023-05-25T11:55:38.143Z,123.75
2023-05-25T11:56:38.148Z,146.25
2023-05-25T11:57:38.153Z,146.25
2023-05-25T11:58:38.152Z,140.63
2023-05-25T11:59:38.223Z,129.38
2023-05-25T12:00:38.154Z,135.00
2023-05-25T12:01:38.161Z,135.00
2023-05-25T12:02:38.267Z,135.00
2023-05-25T12:03:38.286Z,112.50
2023-05-25T12:04:38.309Z,101.25
2023-05-25T12:05:38.341Z,95.63
2023-05-25T12:06:38.218Z,90.00
2023-05-25T12:07:38.192Z,90.00
2023-05-25T12:08:38.180Z,106.88
2023-05-25T12:09:38.174Z,146.25
2023-05-25T12:10:38.204Z,140.63
2023-05-25T12:11:38.193Z,106.88
2023-05-25T12:12:38.199Z,101.25
2023-05-25T12:13:38.171Z,101.25
2023-05-25T12:14:38.184Z,106.88
2023-05-25T12:15:38.178Z,106.88
2023-05-25T12:16:38.276Z,106.88
2023-05-25T12:17:38.224Z,112.50
2023-05-25T12:18:38.185Z,112.50
2023-05-25T12:19:38.184Z,129.38
2023-05-25T12:20:38.227Z,151.88
2023-05-25T12:21:39.106Z,163.13
2023-05-25T12:22:38.191Z,163.13
2023-05-25T12:23:38.186Z,163.13
2023-05-25T12:24:38.189Z,157.50
2023-05-25T12:25:49.594Z,129.38
2023-05-25T12:26:38.237Z,174.38
2023-05-25T12:27:38.193Z,174.38
2023-05-25T12:28:38.209Z,174.38
2023-05-25T12:29:38.287Z,168.75
2023-05-25T12:30:38.237Z,168.75
2023-05-25T12:31:38.242Z,168.75
2023-05-25T12:32:38.240Z,123.75
2023-05-25T12:33:38.213Z,118.13
2023-05-25T12:34:38.221Z,118.13
2023-05-25T12:35:38.207Z,123.75
2023-05-25T12:36:38.217Z,123.75
2023-05-25T12:37:38.219Z,135.00
2023-05-25T12:38:38.213Z,151.88
2023-05-25T12:39:38.224Z,174.38
2023-05-25T12:40:38.225Z,174.38
2023-05-25T12:41:38.232Z,174.38
2023-05-25T12:42:42.958Z,174.38
2023-05-25T12:43:38.228Z,168.75
2023-05-25T12:44:38.240Z,157.50
2023-05-25T12:45:38.243Z,135.00